Terminal Aerodrome Forecast
Issued by NWS

Home | Current Version | Previous Version | Text Only | Print | Product List | Glossary On
Versions: 1 2 3 4 5 6 7 8 9 10 11 12 13 14 15 16 17 18 19 20 21 22 23 24 25 26 27 28 29 30 31 32 33 34 35 36 37 38
000
FTUS45 KGJT 292340
TAFVEL
TAF
KVEL 292340Z 3000/3024 30009KT P6SM FEW110 BKN200
     FM300200 27004KT P6SM SCT110 SCT200
     FM301400 VRB03KT P6SM SCT200
     FM301900 33008KT P6SM SCT110 BKN200=

USA.gov is the U.S. government's official web portal to all federal, state and local government web resources and services.